Valle Puerto Real, Puerto Rico
Current Conditions -  °F | °C
As of 10:53 AM on Friday 19 Dec 2014 (Local Time) from TJNR Reporting Station
Few Clouds Few Clouds  
Wind Chill: 83°   Ceiling: Unl
Heat Index: 86°   Visibility: 10mi
Dew Point: 69°   Wind: 9mph
Humidity: 63%   Direction: 80°E
Pressure: 30.04"   Gusts: NA
Location:  18.3201°N, 65.6502°W
Report Text: TJNR 191453Z AUTO 08008KT 10SM FEW031 28/21 A3004 RMK AO2 SLP174 T02830206 51013
Loading
Personal Weather Stations






























Interactive Weather Map New forecast layout! Learn more

10-Day Weather Forecast

Advertisements
Track Severe Weather on mobile